sensor_id;sensor_type;location;lat;lon;timestamp;P1;durP1;ratioP1;P2;durP2;ratioP2
13321;SDS011;6730;46.248;6.930;2023-05-23T00:01:39;3.20;;;2.90;;
13321;SDS011;6730;46.248;6.930;2023-05-23T00:04:07;3.80;;;3.35;;
13321;SDS011;6730;46.248;6.930;2023-05-23T00:06:33;4.43;;;3.25;;
13321;SDS011;6730;46.248;6.930;2023-05-23T00:09:00;3.90;;;3.60;;
13321;SDS011;6730;46.248;6.930;2023-05-23T00:11:26;3.83;;;3.53;;
13321;SDS011;6730;46.248;6.930;2023-05-23T00:13:53;3.80;;;3.17;;
13321;SDS011;6730;46.248;6.930;2023-05-23T00:16:19;3.58;;;3.28;;
13321;SDS011;6730;46.248;6.930;2023-05-23T00:18:45;3.95;;;3.65;;
13321;SDS011;6730;46.248;6.930;2023-05-23T00:21:11;4.78;;;3.42;;
13321;SDS011;6730;46.248;6.930;2023-05-23T00:23:37;5.22;;;3.50;;
13321;SDS011;6730;46.248;6.930;2023-05-23T00:26:06;3.83;;;3.42;;
13321;SDS011;6730;46.248;6.930;2023-05-23T00:28:36;3.92;;;3.63;;
13321;SDS011;6730;46.248;6.930;2023-05-23T00:31:02;4.50;;;3.55;;
13321;SDS011;6730;46.248;6.930;2023-05-23T00:33:27;4.03;;;3.70;;
13321;SDS011;6730;46.248;6.930;2023-05-23T00:35:53;4.28;;;3.88;;
13321;SDS011;6730;46.248;6.930;2023-05-23T00:38:19;4.10;;;3.50;;
13321;SDS011;6730;46.248;6.930;2023-05-23T00:40:45;3.67;;;3.38;;
13321;SDS011;6730;46.248;6.930;2023-05-23T00:43:12;4.28;;;3.88;;
13321;SDS011;6730;46.248;6.930;2023-05-23T00:45:38;3.88;;;3.47;;
13321;SDS011;6730;46.248;6.930;2023-05-23T00:48:04;5.38;;;3.60;;
13321;SDS011;6730;46.248;6.930;2023-05-23T00:50:31;4.93;;;3.72;;
13321;SDS011;6730;46.248;6.930;2023-05-23T00:52:57;4.22;;;3.38;;
13321;SDS011;6730;46.248;6.930;2023-05-23T00:55:28;3.83;;;3.40;;
13321;SDS011;6730;46.248;6.930;2023-05-23T00:57:54;3.72;;;3.38;;
13321;SDS011;6730;46.248;6.930;2023-05-23T01:00:22;3.72;;;3.38;;
13321;SDS011;6730;46.248;6.930;2023-05-23T01:02:49;4.03;;;3.63;;
13321;SDS011;6730;46.248;6.930;2023-05-23T01:05:16;4.05;;;3.47;;
13321;SDS011;6730;46.248;6.930;2023-05-23T01:07:45;4.15;;;3.60;;
13321;SDS011;6730;46.248;6.930;2023-05-23T01:10:11;4.15;;;3.28;;
13321;SDS011;6730;46.248;6.930;2023-05-23T01:15:44;3.58;;;3.28;;
13321;SDS011;6730;46.248;6.930;2023-05-23T01:18:36;4.20;;;3.80;;
13321;SDS011;6730;46.248;6.930;2023-05-23T01:21:22;3.67;;;3.13;;
13321;SDS011;6730;46.248;6.930;2023-05-23T01:29:41;3.72;;;3.35;;
13321;SDS011;6730;46.248;6.930;2023-05-23T01:32:10;5.97;;;3.92;;
13321;SDS011;6730;46.248;6.930;2023-05-23T01:34:38;3.92;;;3.53;;
13321;SDS011;6730;46.248;6.930;2023-05-23T01:37:11;4.38;;;3.60;;
13321;SDS011;6730;46.248;6.930;2023-05-23T01:39:43;3.95;;;3.58;;
13321;SDS011;6730;46.248;6.930;2023-05-23T01:42:09;4.57;;;3.10;;
13321;SDS011;6730;46.248;6.930;2023-05-23T01:44:35;3.90;;;3.50;;
13321;SDS011;6730;46.248;6.930;2023-05-23T01:47:02;3.40;;;3.13;;
13321;SDS011;6730;46.248;6.930;2023-05-23T01:49:32;4.30;;;3.42;;
13321;SDS011;6730;46.248;6.930;2023-05-23T01:52:00;4.28;;;3.80;;
13321;SDS011;6730;46.248;6.930;2023-05-23T01:54:26;3.50;;;3.10;;
13321;SDS011;6730;46.248;6.930;2023-05-23T01:56:54;4.13;;;3.70;;
13321;SDS011;6730;46.248;6.930;2023-05-23T01:59:21;3.97;;;3.55;;
13321;SDS011;6730;46.248;6.930;2023-05-23T02:01:47;3.88;;;3.58;;
13321;SDS011;6730;46.248;6.930;2023-05-23T02:04:13;4.00;;;3.60;;
13321;SDS011;6730;46.248;6.930;2023-05-23T02:06:39;4.00;;;3.60;;
13321;SDS011;6730;46.248;6.930;2023-05-23T02:09:06;3.42;;;3.13;;
13321;SDS011;6730;46.248;6.930;2023-05-23T02:11:32;4.18;;;3.22;;
13321;SDS011;6730;46.248;6.930;2023-05-23T02:13:58;4.28;;;3.47;;
13321;SDS011;6730;46.248;6.930;2023-05-23T02:16:24;6.22;;;3.28;;
13321;SDS011;6730;46.248;6.930;2023-05-23T02:18:50;3.78;;;3.20;;
13321;SDS011;6730;46.248;6.930;2023-05-23T02:21:21;4.07;;;3.67;;
13321;SDS011;6730;46.248;6.930;2023-05-23T02:23:47;3.70;;;3.30;;
13321;SDS011;6730;46.248;6.930;2023-05-23T02:26:12;4.40;;;3.60;;
13321;SDS011;6730;46.248;6.930;2023-05-23T02:28:38;4.57;;;3.63;;
13321;SDS011;6730;46.248;6.930;2023-05-23T02:31:05;4.05;;;3.63;;
13321;SDS011;6730;46.248;6.930;2023-05-23T02:33:30;4.22;;;3.83;;
13321;SDS011;6730;46.248;6.930;2023-05-23T02:35:56;4.20;;;3.80;;
13321;SDS011;6730;46.248;6.930;2023-05-23T02:38:22;5.07;;;3.40;;
13321;SDS011;6730;46.248;6.930;2023-05-23T02:40:48;3.97;;;3.53;;
13321;SDS011;6730;46.248;6.930;2023-05-23T02:43:15;4.18;;;3.35;;
13321;SDS011;6730;46.248;6.930;2023-05-23T02:45:41;3.97;;;3.55;;
13321;SDS011;6730;46.248;6.930;2023-05-23T02:48:07;3.92;;;3.50;;
13321;SDS011;6730;46.248;6.930;2023-05-23T02:50:32;4.55;;;3.78;;
13321;SDS011;6730;46.248;6.930;2023-05-23T02:52:58;5.53;;;3.70;;
13321;SDS011;6730;46.248;6.930;2023-05-23T02:55:23;4.05;;;3.40;;
13321;SDS011;6730;46.248;6.930;2023-05-23T02:57:49;5.32;;;3.70;;
13321;SDS011;6730;46.248;6.930;2023-05-23T03:00:15;3.55;;;3.20;;
13321;SDS011;6730;46.248;6.930;2023-05-23T03:02:41;4.15;;;3.75;;
13321;SDS011;6730;46.248;6.930;2023-05-23T03:05:07;3.50;;;3.20;;
13321;SDS011;6730;46.248;6.930;2023-05-23T03:07:33;4.28;;;3.88;;
13321;SDS011;6730;46.248;6.930;2023-05-23T03:09:59;4.00;;;3.42;;
13321;SDS011;6730;46.248;6.930;2023-05-23T03:12:26;3.80;;;3.50;;
13321;SDS011;6730;46.248;6.930;2023-05-23T03:14:52;5.13;;;3.10;;
13321;SDS011;6730;46.248;6.930;2023-05-23T03:17:18;3.95;;;3.58;;
13321;SDS011;6730;46.248;6.930;2023-05-23T03:19:43;3.97;;;3.58;;
13321;SDS011;6730;46.248;6.930;2023-05-23T03:22:09;4.63;;;3.40;;
13321;SDS011;6730;46.248;6.930;2023-05-23T03:24:35;4.03;;;3.67;;
13321;SDS011;6730;46.248;6.930;2023-05-23T03:27:00;4.22;;;3.83;;
13321;SDS011;6730;46.248;6.930;2023-05-23T03:29:27;3.92;;;3.50;;
13321;SDS011;6730;46.248;6.930;2023-05-23T03:31:52;4.13;;;3.70;;
13321;SDS011;6730;46.248;6.930;2023-05-23T03:34:18;4.30;;;3.90;;
13321;SDS011;6730;46.248;6.930;2023-05-23T03:36:43;4.40;;;3.95;;
13321;SDS011;6730;46.248;6.930;2023-05-23T03:39:09;4.80;;;3.72;;
13321;SDS011;6730;46.248;6.930;2023-05-23T03:41:35;3.78;;;3.33;;
13321;SDS011;6730;46.248;6.930;2023-05-23T03:44:00;5.50;;;3.78;;
13321;SDS011;6730;46.248;6.930;2023-05-23T03:46:27;4.47;;;3.80;;
13321;SDS011;6730;46.248;6.930;2023-05-23T03:48:53;5.82;;;3.88;;
13321;SDS011;6730;46.248;6.930;2023-05-23T03:51:18;4.07;;;3.60;;
13321;SDS011;6730;46.248;6.930;2023-05-23T03:53:44;4.57;;;3.92;;
13321;SDS011;6730;46.248;6.930;2023-05-23T03:56:10;6.70;;;3.72;;
13321;SDS011;6730;46.248;6.930;2023-05-23T03:58:36;4.45;;;4.05;;
13321;SDS011;6730;46.248;6.930;2023-05-23T04:01:01;4.03;;;3.58;;
13321;SDS011;6730;46.248;6.930;2023-05-23T04:03:27;5.40;;;3.92;;
13321;SDS011;6730;46.248;6.930;2023-05-23T04:05:56;4.68;;;3.83;;
13321;SDS011;6730;46.248;6.930;2023-05-23T04:08:25;5.53;;;3.70;;
13321;SDS011;6730;46.248;6.930;2023-05-23T04:10:53;3.95;;;3.58;;
13321;SDS011;6730;46.248;6.930;2023-05-23T04:13:19;4.20;;;3.67;;
13321;SDS011;6730;46.248;6.930;2023-05-23T04:15:45;5.63;;;3.85;;
13321;SDS011;6730;46.248;6.930;2023-05-23T04:18:12;4.20;;;3.80;;
13321;SDS011;6730;46.248;6.930;2023-05-23T04:20:39;4.53;;;4.13;;
13321;SDS011;6730;46.248;6.930;2023-05-23T04:23:05;4.20;;;3.70;;
13321;SDS011;6730;46.248;6.930;2023-05-23T04:25:30;4.88;;;3.60;;
13321;SDS011;6730;46.248;6.930;2023-05-23T04:27:56;4.15;;;3.75;;
13321;SDS011;6730;46.248;6.930;2023-05-23T04:30:22;4.07;;;3.67;;
13321;SDS011;6730;46.248;6.930;2023-05-23T04:32:47;5.00;;;3.47;;
13321;SDS011;6730;46.248;6.930;2023-05-23T04:35:13;4.68;;;3.88;;
13321;SDS011;6730;46.248;6.930;2023-05-23T04:37:39;4.20;;;3.38;;
13321;SDS011;6730;46.248;6.930;2023-05-23T04:40:06;5.55;;;4.00;;
13321;SDS011;6730;46.248;6.930;2023-05-23T04:42:32;4.30;;;4.00;;
13321;SDS011;6730;46.248;6.930;2023-05-23T04:44:58;5.43;;;3.80;;
13321;SDS011;6730;46.248;6.930;2023-05-23T04:47:26;4.05;;;3.55;;
13321;SDS011;6730;46.248;6.930;2023-05-23T04:49:56;4.47;;;3.65;;
13321;SDS011;6730;46.248;6.930;2023-05-23T04:52:22;4.43;;;3.90;;
13321;SDS011;6730;46.248;6.930;2023-05-23T04:54:47;4.40;;;4.00;;
13321;SDS011;6730;46.248;6.930;2023-05-23T04:57:13;5.05;;;4.00;;
13321;SDS011;6730;46.248;6.930;2023-05-23T04:59:39;4.15;;;3.75;;
13321;SDS011;6730;46.248;6.930;2023-05-23T05:02:06;4.65;;;4.25;;
13321;SDS011;6730;46.248;6.930;2023-05-23T05:04:33;4.50;;;4.10;;
13321;SDS011;6730;46.248;6.930;2023-05-23T05:06:59;4.50;;;4.10;;
13321;SDS011;6730;46.248;6.930;2023-05-23T05:09:27;4.20;;;3.78;;
13321;SDS011;6730;46.248;6.930;2023-05-23T05:11:54;4.07;;;3.70;;
13321;SDS011;6730;46.248;6.930;2023-05-23T05:14:19;4.97;;;3.67;;
13321;SDS011;6730;46.248;6.930;2023-05-23T05:16:45;4.50;;;4.10;;
13321;SDS011;6730;46.248;6.930;2023-05-23T05:19:12;5.78;;;4.28;;
13321;SDS011;6730;46.248;6.930;2023-05-23T05:21:38;5.82;;;3.92;;
13321;SDS011;6730;46.248;6.930;2023-05-23T05:24:03;6.35;;;4.35;;
13321;SDS011;6730;46.248;6.930;2023-05-23T05:26:29;4.47;;;4.07;;
13321;SDS011;6730;46.248;6.930;2023-05-23T05:28:55;4.30;;;3.88;;
13321;SDS011;6730;46.248;6.930;2023-05-23T05:31:21;5.80;;;3.90;;
13321;SDS011;6730;46.248;6.930;2023-05-23T05:33:46;5.10;;;4.55;;
13321;SDS011;6730;46.248;6.930;2023-05-23T05:36:12;6.50;;;4.20;;
13321;SDS011;6730;46.248;6.930;2023-05-23T05:38:37;5.28;;;4.35;;
13321;SDS011;6730;46.248;6.930;2023-05-23T05:41:03;4.40;;;4.00;;
13321;SDS011;6730;46.248;6.930;2023-05-23T05:43:29;4.88;;;3.90;;
13321;SDS011;6730;46.248;6.930;2023-05-23T05:45:55;4.95;;;4.03;;
13321;SDS011;6730;46.248;6.930;2023-05-23T05:48:20;4.40;;;4.00;;
13321;SDS011;6730;46.248;6.930;2023-05-23T05:50:46;3.78;;;3.47;;
13321;SDS011;6730;46.248;6.930;2023-05-23T05:53:12;6.07;;;4.55;;
13321;SDS011;6730;46.248;6.930;2023-05-23T05:55:38;4.13;;;3.70;;
13321;SDS011;6730;46.248;6.930;2023-05-23T05:58:03;4.68;;;4.28;;
13321;SDS011;6730;46.248;6.930;2023-05-23T06:00:29;6.13;;;4.43;;
13321;SDS011;6730;46.248;6.930;2023-05-23T06:02:55;5.18;;;4.13;;
13321;SDS011;6730;46.248;6.930;2023-05-23T06:05:21;6.18;;;4.60;;
13321;SDS011;6730;46.248;6.930;2023-05-23T06:07:48;5.65;;;5.07;;
13321;SDS011;6730;46.248;6.930;2023-05-23T06:10:14;7.85;;;5.38;;
13321;SDS011;6730;46.248;6.930;2023-05-23T06:12:40;8.00;;;5.20;;
13321;SDS011;6730;46.248;6.930;2023-05-23T06:15:06;5.70;;;5.03;;
13321;SDS011;6730;46.248;6.930;2023-05-23T06:17:33;5.18;;;4.63;;
13321;SDS011;6730;46.248;6.930;2023-05-23T06:19:59;5.97;;;4.82;;
13321;SDS011;6730;46.248;6.930;2023-05-23T06:22:25;5.63;;;4.93;;
13321;SDS011;6730;46.248;6.930;2023-05-23T06:24:50;5.30;;;4.80;;
13321;SDS011;6730;46.248;6.930;2023-05-23T06:27:16;6.70;;;5.38;;
13321;SDS011;6730;46.248;6.930;2023-05-23T06:29:42;8.60;;;5.80;;
13321;SDS011;6730;46.248;6.930;2023-05-23T06:32:07;5.95;;;5.35;;
13321;SDS011;6730;46.248;6.930;2023-05-23T06:34:33;5.60;;;5.03;;
13321;SDS011;6730;46.248;6.930;2023-05-23T06:36:59;8.27;;;5.32;;
13321;SDS011;6730;46.248;6.930;2023-05-23T06:39:24;6.13;;;5.32;;
13321;SDS011;6730;46.248;6.930;2023-05-23T06:41:50;6.00;;;4.35;;
13321;SDS011;6730;46.248;6.930;2023-05-23T06:44:16;4.93;;;4.45;;
13321;SDS011;6730;46.248;6.930;2023-05-23T06:46:42;5.93;;;5.40;;
13321;SDS011;6730;46.248;6.930;2023-05-23T06:49:09;8.13;;;6.03;;
13321;SDS011;6730;46.248;6.930;2023-05-23T06:51:35;6.25;;;5.47;;
13321;SDS011;6730;46.248;6.930;2023-05-23T06:54:00;8.00;;;6.10;;
13321;SDS011;6730;46.248;6.930;2023-05-23T06:56:26;6.35;;;5.75;;
13321;SDS011;6730;46.248;6.930;2023-05-23T06:58:52;7.78;;;5.20;;
13321;SDS011;6730;46.248;6.930;2023-05-23T07:01:17;6.75;;;5.78;;
13321;SDS011;6730;46.248;6.930;2023-05-23T07:03:43;7.18;;;5.72;;
13321;SDS011;6730;46.248;6.930;2023-05-23T07:06:10;11.68;;;5.50;;
13321;SDS011;6730;46.248;6.930;2023-05-23T07:08:36;8.25;;;5.35;;
13321;SDS011;6730;46.248;6.930;2023-05-23T07:11:03;9.50;;;5.60;;
13321;SDS011;6730;46.248;6.930;2023-05-23T07:13:32;9.27;;;5.15;;
13321;SDS011;6730;46.248;6.930;2023-05-23T07:15:57;7.15;;;5.57;;
13321;SDS011;6730;46.248;6.930;2023-05-23T07:18:23;6.28;;;5.43;;
13321;SDS011;6730;46.248;6.930;2023-05-23T07:20:49;6.07;;;4.95;;
13321;SDS011;6730;46.248;6.930;2023-05-23T07:23:15;6.85;;;4.78;;
13321;SDS011;6730;46.248;6.930;2023-05-23T07:25:40;5.38;;;4.88;;
13321;SDS011;6730;46.248;6.930;2023-05-23T07:28:07;5.20;;;4.70;;
13321;SDS011;6730;46.248;6.930;2023-05-23T07:30:33;6.95;;;5.40;;
13321;SDS011;6730;46.248;6.930;2023-05-23T07:32:58;6.28;;;5.32;;
13321;SDS011;6730;46.248;6.930;2023-05-23T07:35:24;5.82;;;5.15;;
13321;SDS011;6730;46.248;6.930;2023-05-23T07:37:54;5.97;;;4.63;;
13321;SDS011;6730;46.248;6.930;2023-05-23T07:40:20;8.75;;;5.47;;
13321;SDS011;6730;46.248;6.930;2023-05-23T07:42:46;10.10;;;5.57;;
13321;SDS011;6730;46.248;6.930;2023-05-23T07:45:12;7.75;;;6.22;;
13321;SDS011;6730;46.248;6.930;2023-05-23T07:47:38;7.47;;;6.68;;
13321;SDS011;6730;46.248;6.930;2023-05-23T07:50:04;7.57;;;6.57;;
13321;SDS011;6730;46.248;6.930;2023-05-23T07:52:30;6.85;;;6.15;;
13321;SDS011;6730;46.248;6.930;2023-05-23T07:54:57;7.13;;;6.43;;
13321;SDS011;6730;46.248;6.930;2023-05-23T07:57:23;8.27;;;6.25;;
13321;SDS011;6730;46.248;6.930;2023-05-23T07:59:50;7.35;;;6.03;;
13321;SDS011;6730;46.248;6.930;2023-05-23T08:02:16;6.50;;;5.53;;
13321;SDS011;6730;46.248;6.930;2023-05-23T08:04:42;5.93;;;5.32;;
13321;SDS011;6730;46.248;6.930;2023-05-23T08:07:09;7.75;;;6.07;;
13321;SDS011;6730;46.248;6.930;2023-05-23T08:09:35;6.18;;;5.57;;
13321;SDS011;6730;46.248;6.930;2023-05-23T08:12:01;9.18;;;5.88;;
13321;SDS011;6730;46.248;6.930;2023-05-23T08:14:27;6.03;;;5.53;;
13321;SDS011;6730;46.248;6.930;2023-05-23T08:16:53;6.03;;;5.43;;
13321;SDS011;6730;46.248;6.930;2023-05-23T08:19:19;7.63;;;6.07;;
13321;SDS011;6730;46.248;6.930;2023-05-23T08:21:45;6.30;;;5.70;;
13321;SDS011;6730;46.248;6.930;2023-05-23T08:24:11;6.80;;;5.47;;
13321;SDS011;6730;46.248;6.930;2023-05-23T08:26:37;6.47;;;5.68;;
13321;SDS011;6730;46.248;6.930;2023-05-23T08:29:03;6.53;;;5.70;;
13321;SDS011;6730;46.248;6.930;2023-05-23T08:31:29;8.15;;;5.55;;
13321;SDS011;6730;46.248;6.930;2023-05-23T08:33:55;5.30;;;4.80;;
13321;SDS011;6730;46.248;6.930;2023-05-23T08:36:21;5.57;;;4.97;;
13321;SDS011;6730;46.248;6.930;2023-05-23T08:38:48;8.15;;;5.28;;
13321;SDS011;6730;46.248;6.930;2023-05-23T08:41:23;8.90;;;5.20;;
13321;SDS011;6730;46.248;6.930;2023-05-23T08:43:50;5.50;;;5.03;;
13321;SDS011;6730;46.248;6.930;2023-05-23T08:46:16;6.25;;;5.47;;
13321;SDS011;6730;46.248;6.930;2023-05-23T08:48:43;6.97;;;5.97;;
13321;SDS011;6730;46.248;6.930;2023-05-23T08:51:19;5.57;;;5.07;;
13321;SDS011;6730;46.248;6.930;2023-05-23T08:53:46;7.40;;;5.38;;
13321;SDS011;6730;46.248;6.930;2023-05-23T08:56:12;6.05;;;5.47;;
13321;SDS011;6730;46.248;6.930;2023-05-23T08:58:40;6.40;;;5.70;;
13321;SDS011;6730;46.248;6.930;2023-05-23T09:01:07;10.73;;;5.35;;
13321;SDS011;6730;46.248;6.930;2023-05-23T09:03:35;6.43;;;5.70;;
13321;SDS011;6730;46.248;6.930;2023-05-23T09:06:02;5.05;;;4.57;;
13321;SDS011;6730;46.248;6.930;2023-05-23T09:08:30;6.13;;;5.55;;
13321;SDS011;6730;46.248;6.930;2023-05-23T09:10:56;6.15;;;5.55;;
13321;SDS011;6730;46.248;6.930;2023-05-23T09:13:22;6.90;;;6.13;;
13321;SDS011;6730;46.248;6.930;2023-05-23T09:18:25;7.10;;;6.10;;
13321;SDS011;6730;46.248;6.930;2023-05-23T09:20:51;6.63;;;5.93;;
13321;SDS011;6730;46.248;6.930;2023-05-23T09:23:18;7.05;;;5.68;;
13321;SDS011;6730;46.248;6.930;2023-05-23T09:25:47;8.65;;;6.35;;
13321;SDS011;6730;46.248;6.930;2023-05-23T09:28:13;6.32;;;5.72;;
13321;SDS011;6730;46.248;6.930;2023-05-23T09:30:39;6.30;;;5.70;;
13321;SDS011;6730;46.248;6.930;2023-05-23T09:33:04;10.48;;;6.82;;
13321;SDS011;6730;46.248;6.930;2023-05-23T09:35:30;7.07;;;6.00;;
13321;SDS011;6730;46.248;6.930;2023-05-23T09:37:56;8.73;;;6.63;;
13321;SDS011;6730;46.248;6.930;2023-05-23T09:40:31;8.43;;;6.25;;
13321;SDS011;6730;46.248;6.930;2023-05-23T09:43:01;7.05;;;6.25;;
13321;SDS011;6730;46.248;6.930;2023-05-23T09:45:28;7.03;;;6.32;;
13321;SDS011;6730;46.248;6.930;2023-05-23T09:47:55;6.97;;;6.28;;
13321;SDS011;6730;46.248;6.930;2023-05-23T09:50:21;7.93;;;7.10;;
13321;SDS011;6730;46.248;6.930;2023-05-23T09:52:48;7.88;;;6.60;;
13321;SDS011;6730;46.248;6.930;2023-05-23T09:55:15;8.75;;;7.43;;
13321;SDS011;6730;46.248;6.930;2023-05-23T09:57:41;8.73;;;7.35;;
13321;SDS011;6730;46.248;6.930;2023-05-23T10:00:07;9.35;;;7.75;;
13321;SDS011;6730;46.248;6.930;2023-05-23T10:02:57;8.77;;;7.85;;
13321;SDS011;6730;46.248;6.930;2023-05-23T10:05:46;8.23;;;7.47;;
13321;SDS011;6730;46.248;6.930;2023-05-23T10:08:20;7.50;;;6.80;;
13321;SDS011;6730;46.248;6.930;2023-05-23T10:13:25;8.55;;;7.45;;
13321;SDS011;6730;46.248;6.930;2023-05-23T10:15:59;8.27;;;7.43;;
13321;SDS011;6730;46.248;6.930;2023-05-23T10:18:33;8.75;;;7.85;;
13321;SDS011;6730;46.248;6.930;2023-05-23T10:21:05;9.02;;;8.13;;
13321;SDS011;6730;46.248;6.930;2023-05-23T10:23:34;8.70;;;7.80;;
13321;SDS011;6730;46.248;6.930;2023-05-23T10:26:01;8.25;;;7.43;;
13321;SDS011;6730;46.248;6.930;2023-05-23T10:28:29;9.13;;;8.23;;
13321;SDS011;6730;46.248;6.930;2023-05-23T10:30:56;8.85;;;7.93;;
13321;SDS011;6730;46.248;6.930;2023-05-23T10:33:22;8.88;;;8.00;;
13321;SDS011;6730;46.248;6.930;2023-05-23T10:36:06;9.23;;;8.32;;
13321;SDS011;6730;46.248;6.930;2023-05-23T10:38:41;10.60;;;8.68;;
13321;SDS011;6730;46.248;6.930;2023-05-23T10:41:20;8.55;;;7.75;;
13321;SDS011;6730;46.248;6.930;2023-05-23T10:46:51;8.98;;;7.65;;
13321;SDS011;6730;46.248;6.930;2023-05-23T10:49:18;10.20;;;7.53;;
13321;SDS011;6730;46.248;6.930;2023-05-23T10:51:49;8.80;;;7.43;;
13321;SDS011;6730;46.248;6.930;2023-05-23T10:54:17;10.25;;;7.72;;
13321;SDS011;6730;46.248;6.930;2023-05-23T10:56:46;8.23;;;6.78;;
13321;SDS011;6730;46.248;6.930;2023-05-23T10:59:26;8.18;;;7.45;;
13321;SDS011;6730;46.248;6.930;2023-05-23T11:01:52;8.60;;;7.72;;
13321;SDS011;6730;46.248;6.930;2023-05-23T11:04:26;7.93;;;7.13;;
13321;SDS011;6730;46.248;6.930;2023-05-23T11:06:53;7.80;;;7.00;;
13321;SDS011;6730;46.248;6.930;2023-05-23T11:09:20;8.98;;;7.60;;
13321;SDS011;6730;46.248;6.930;2023-05-23T11:16:55;8.20;;;7.40;;
13321;SDS011;6730;46.248;6.930;2023-05-23T11:19:22;8.40;;;7.68;;
13321;SDS011;6730;46.248;6.930;2023-05-23T11:21:57;8.18;;;7.38;;
13321;SDS011;6730;46.248;6.930;2023-05-23T11:27:27;8.50;;;7.70;;
13321;SDS011;6730;46.248;6.930;2023-05-23T11:29:58;9.32;;;7.97;;
13321;SDS011;6730;46.248;6.930;2023-05-23T11:32:26;8.93;;;7.60;;
13321;SDS011;6730;46.248;6.930;2023-05-23T11:34:57;9.18;;;7.07;;
13321;SDS011;6730;46.248;6.930;2023-05-23T11:37:24;8.73;;;7.93;;
13321;SDS011;6730;46.248;6.930;2023-05-23T11:39:51;9.27;;;8.38;;
13321;SDS011;6730;46.248;6.930;2023-05-23T11:42:16;8.73;;;7.45;;
13321;SDS011;6730;46.248;6.930;2023-05-23T11:44:42;7.75;;;7.00;;
13321;SDS011;6730;46.248;6.930;2023-05-23T11:47:09;8.88;;;7.82;;
13321;SDS011;6730;46.248;6.930;2023-05-23T11:49:35;8.52;;;7.72;;
13321;SDS011;6730;46.248;6.930;2023-05-23T11:52:04;9.52;;;6.88;;
13321;SDS011;6730;46.248;6.930;2023-05-23T11:54:31;8.95;;;7.93;;
13321;SDS011;6730;46.248;6.930;2023-05-23T11:56:57;11.63;;;8.07;;
13321;SDS011;6730;46.248;6.930;2023-05-23T11:59:24;8.68;;;7.75;;
13321;SDS011;6730;46.248;6.930;2023-05-23T12:01:51;8.85;;;7.95;;
13321;SDS011;6730;46.248;6.930;2023-05-23T12:04:18;9.07;;;7.88;;
13321;SDS011;6730;46.248;6.930;2023-05-23T12:06:48;9.43;;;7.38;;
13321;SDS011;6730;46.248;6.930;2023-05-23T12:09:14;8.55;;;7.68;;
13321;SDS011;6730;46.248;6.930;2023-05-23T12:11:41;7.70;;;6.95;;
13321;SDS011;6730;46.248;6.930;2023-05-23T12:14:07;8.18;;;7.35;;
13321;SDS011;6730;46.248;6.930;2023-05-23T12:16:34;8.35;;;6.18;;
13321;SDS011;6730;46.248;6.930;2023-05-23T12:19:00;7.70;;;6.93;;
13321;SDS011;6730;46.248;6.930;2023-05-23T12:24:13;7.57;;;6.10;;
13321;SDS011;6730;46.248;6.930;2023-05-23T12:27:14;6.80;;;6.10;;
13321;SDS011;6730;46.248;6.930;2023-05-23T12:29:34;7.72;;;6.68;;
13321;SDS011;6730;46.248;6.930;2023-05-23T12:32:02;7.45;;;6.72;;
13321;SDS011;6730;46.248;6.930;2023-05-23T12:34:28;8.05;;;7.10;;
13321;SDS011;6730;46.248;6.930;2023-05-23T12:36:54;7.85;;;7.05;;
13321;SDS011;6730;46.248;6.930;2023-05-23T12:39:24;8.20;;;6.75;;
13321;SDS011;6730;46.248;6.930;2023-05-23T12:41:51;7.78;;;6.18;;
13321;SDS011;6730;46.248;6.930;2023-05-23T12:44:17;7.20;;;6.25;;
13321;SDS011;6730;46.248;6.930;2023-05-23T12:46:43;8.10;;;6.40;;
13321;SDS011;6730;46.248;6.930;2023-05-23T12:49:10;9.23;;;6.30;;
13321;SDS011;6730;46.248;6.930;2023-05-23T12:51:35;6.70;;;6.05;;
13321;SDS011;6730;46.248;6.930;2023-05-23T12:54:01;7.70;;;6.15;;
13321;SDS011;6730;46.248;6.930;2023-05-23T12:56:27;11.15;;;6.40;;
13321;SDS011;6730;46.248;6.930;2023-05-23T12:58:52;6.72;;;6.13;;
13321;SDS011;6730;46.248;6.930;2023-05-23T13:01:18;7.28;;;6.57;;
13321;SDS011;6730;46.248;6.930;2023-05-23T13:03:44;8.15;;;7.03;;
13321;SDS011;6730;46.248;6.930;2023-05-23T13:06:10;7.85;;;7.05;;
13321;SDS011;6730;46.248;6.930;2023-05-23T13:08:36;8.68;;;7.43;;
13321;SDS011;6730;46.248;6.930;2023-05-23T13:11:02;8.95;;;8.05;;
13321;SDS011;6730;46.248;6.930;2023-05-23T13:13:28;8.35;;;7.50;;
13321;SDS011;6730;46.248;6.930;2023-05-23T13:15:54;10.00;;;8.13;;
13321;SDS011;6730;46.248;6.930;2023-05-23T13:18:20;9.50;;;8.57;;
13321;SDS011;6730;46.248;6.930;2023-05-23T13:20:45;8.23;;;7.15;;
13321;SDS011;6730;46.248;6.930;2023-05-23T13:23:11;8.85;;;7.88;;
13321;SDS011;6730;46.248;6.930;2023-05-23T13:25:37;11.38;;;8.90;;
13321;SDS011;6730;46.248;6.930;2023-05-23T13:28:02;10.05;;;9.05;;
13321;SDS011;6730;46.248;6.930;2023-05-23T13:30:30;12.82;;;8.43;;
13321;SDS011;6730;46.248;6.930;2023-05-23T13:32:56;10.50;;;8.60;;
13321;SDS011;6730;46.248;6.930;2023-05-23T13:35:21;9.05;;;8.15;;
13321;SDS011;6730;46.248;6.930;2023-05-23T13:37:47;9.13;;;8.23;;
13321;SDS011;6730;46.248;6.930;2023-05-23T13:40:16;10.35;;;7.82;;
13321;SDS011;6730;46.248;6.930;2023-05-23T13:42:44;8.57;;;7.68;;
13321;SDS011;6730;46.248;6.930;2023-05-23T13:45:11;9.00;;;7.88;;
13321;SDS011;6730;46.248;6.930;2023-05-23T13:47:37;9.25;;;8.32;;
13321;SDS011;6730;46.248;6.930;2023-05-23T13:50:03;7.75;;;6.95;;
13321;SDS011;6730;46.248;6.930;2023-05-23T13:52:29;4.45;;;4.05;;
13321;SDS011;6730;46.248;6.930;2023-05-23T13:54:55;8.88;;;6.20;;
13321;SDS011;6730;46.248;6.930;2023-05-23T13:57:21;8.60;;;5.80;;
13321;SDS011;6730;46.248;6.930;2023-05-23T13:59:46;8.23;;;7.43;;
13321;SDS011;6730;46.248;6.930;2023-05-23T14:02:12;8.55;;;6.72;;
13321;SDS011;6730;46.248;6.930;2023-05-23T14:04:38;10.15;;;9.15;;
13321;SDS011;6730;46.248;6.930;2023-05-23T14:07:03;6.10;;;5.53;;
13321;SDS011;6730;46.248;6.930;2023-05-23T14:09:29;5.05;;;4.65;;
13321;SDS011;6730;46.248;6.930;2023-05-23T14:11:55;7.05;;;4.78;;
13321;SDS011;6730;46.248;6.930;2023-05-23T14:14:21;9.00;;;4.75;;
13321;SDS011;6730;46.248;6.930;2023-05-23T14:16:49;5.50;;;4.47;;
13321;SDS011;6730;46.248;6.930;2023-05-23T14:19:15;4.85;;;4.00;;
13321;SDS011;6730;46.248;6.930;2023-05-23T14:21:41;5.10;;;4.60;;
13321;SDS011;6730;46.248;6.930;2023-05-23T14:24:06;7.00;;;4.80;;
13321;SDS011;6730;46.248;6.930;2023-05-23T14:26:32;6.97;;;5.75;;
13321;SDS011;6730;46.248;6.930;2023-05-23T14:28:57;6.05;;;5.40;;
13321;SDS011;6730;46.248;6.930;2023-05-23T14:31:23;6.32;;;4.65;;
13321;SDS011;6730;46.248;6.930;2023-05-23T14:33:49;6.23;;;5.50;;
13321;SDS011;6730;46.248;6.930;2023-05-23T14:36:15;5.35;;;4.85;;
13321;SDS011;6730;46.248;6.930;2023-05-23T14:38:40;5.72;;;4.90;;
13321;SDS011;6730;46.248;6.930;2023-05-23T14:41:09;6.88;;;5.20;;
13321;SDS011;6730;46.248;6.930;2023-05-23T14:43:35;7.55;;;5.35;;
13321;SDS011;6730;46.248;6.930;2023-05-23T14:46:01;6.70;;;5.13;;
13321;SDS011;6730;46.248;6.930;2023-05-23T14:48:26;7.15;;;5.40;;
13321;SDS011;6730;46.248;6.930;2023-05-23T14:50:52;6.57;;;4.82;;
13321;SDS011;6730;46.248;6.930;2023-05-23T14:53:18;8.88;;;4.80;;
13321;SDS011;6730;46.248;6.930;2023-05-23T14:55:46;5.47;;;4.85;;
13321;SDS011;6730;46.248;6.930;2023-05-23T14:58:12;6.72;;;5.25;;
13321;SDS011;6730;46.248;6.930;2023-05-23T15:00:37;6.90;;;4.65;;
13321;SDS011;6730;46.248;6.930;2023-05-23T15:03:04;7.13;;;5.38;;
13321;SDS011;6730;46.248;6.930;2023-05-23T15:05:31;7.35;;;4.90;;
13321;SDS011;6730;46.248;6.930;2023-05-23T15:07:57;5.15;;;4.65;;
13321;SDS011;6730;46.248;6.930;2023-05-23T15:10:22;6.22;;;4.97;;
13321;SDS011;6730;46.248;6.930;2023-05-23T15:12:48;6.88;;;4.93;;
13321;SDS011;6730;46.248;6.930;2023-05-23T15:15:14;4.97;;;4.38;;
13321;SDS011;6730;46.248;6.930;2023-05-23T15:17:46;4.40;;;4.00;;
13321;SDS011;6730;46.248;6.930;2023-05-23T15:20:12;4.57;;;3.58;;
13321;SDS011;6730;46.248;6.930;2023-05-23T15:22:38;5.38;;;4.20;;
13321;SDS011;6730;46.248;6.930;2023-05-23T15:25:04;5.15;;;4.50;;
13321;SDS011;6730;46.248;6.930;2023-05-23T15:27:30;4.70;;;4.20;;